createdAt,value
2015-11-20T00:00:04.150Z,97.81
2015-11-20T00:00:16.369Z,98.19
2015-11-20T00:00:28.712Z,98
2015-11-20T00:00:41.040Z,98
2015-11-20T00:00:52.665Z,98.47
2015-11-20T00:01:05.028Z,97.91
2015-11-20T00:01:17.372Z,98.19
2015-11-20T00:01:29.747Z,98.1
2015-11-20T00:01:42.090Z,98.1
2015-11-20T00:01:54.434Z,98.19
2015-11-20T00:02:06.780Z,97.91
2015-11-20T00:02:19.139Z,97.81
2015-11-20T00:02:31.483Z,97.72
2015-11-20T00:02:43.108Z,97.72
2015-11-20T00:02:55.452Z,97.81
2015-11-20T00:03:07.814Z,97.72
2015-11-20T00:03:20.220Z,97.91
2015-11-20T00:03:32.627Z,98.1
2015-11-20T00:03:44.986Z,97.81
2015-11-20T00:03:57.330Z,97.81
2015-11-20T00:04:09.692Z,97.81
2015-11-20T00:04:21.364Z,97.34
2015-11-20T00:04:33.739Z,97.25
2015-11-20T00:04:46.176Z,97.15
2015-11-20T00:04:58.614Z,97.06
2015-11-20T00:05:11.008Z,97.25
2015-11-20T00:05:23.367Z,97.25
2015-11-20T00:05:35.758Z,97.44
2015-11-20T00:05:48.117Z,97.15
2015-11-20T00:06:00.461Z,97.15
2015-11-20T00:06:12.807Z,97.34
2015-11-20T00:06:25.151Z,97.34
2015-11-20T00:06:37.511Z,97.34
2015-11-20T00:06:49.964Z,97.53
2015-11-20T00:07:02.292Z,97.53
2015-11-20T00:07:14.639Z,97.81
2015-11-20T00:07:26.279Z,97.72
2015-11-20T00:07:38.607Z,97.53
2015-11-20T00:07:50.967Z,97.44
2015-11-20T00:08:03.326Z,97.34
2015-11-20T00:08:15.687Z,97.72
2015-11-20T00:08:28.016Z,97.72
2015-11-20T00:08:40.375Z,98
2015-11-20T00:08:52.734Z,97.81
2015-11-20T00:09:04.375Z,98.19
2015-11-20T00:09:16.737Z,97.81
2015-11-20T00:09:28.425Z,97.91
2015-11-20T00:09:40.878Z,98.1
2015-11-20T00:09:53.237Z,98.19
2015-11-20T00:10:05.472Z,97.91
2015-11-20T00:10:17.850Z,97.81
2015-11-20T00:10:30.225Z,97.72
2015-11-20T00:10:42.600Z,97.53
2015-11-20T00:10:55.084Z,97.63
2015-11-20T00:11:07.522Z,98
2015-11-20T00:11:19.945Z,98
2015-11-20T00:11:32.305Z,98.1
2015-11-20T00:11:44.664Z,97.91
2015-11-20T00:11:56.992Z,98.19
2015-11-20T00:12:08.633Z,98.19
2015-11-20T00:12:20.996Z,98.28
2015-11-20T00:12:33.246Z,99.04
2015-11-20T00:12:45.574Z,99.04
2015-11-20T00:12:57.918Z,98.95
2015-11-20T00:13:10.278Z,98.38
2015-11-20T00:13:22.623Z,98.95
2015-11-20T00:13:34.967Z,98.66
2015-11-20T00:13:47.311Z,98.85
2015-11-20T00:13:58.936Z,98.95
2015-11-20T00:14:11.389Z,98.95
2015-11-20T00:14:23.798Z,98.85
2015-11-20T00:14:36.158Z,98.66
2015-11-20T00:14:48.517Z,99.14
2015-11-20T00:15:00.892Z,99.23
2015-11-20T00:15:13.270Z,99.33
2015-11-20T00:15:25.645Z,99.33
2015-11-20T00:15:38.020Z,99.61
2015-11-20T00:15:50.395Z,99.33
2015-11-20T00:16:02.786Z,99.52
2015-11-20T00:16:15.163Z,99.42
2015-11-20T00:16:27.397Z,99.14
2015-11-20T00:16:39.741Z,99.61
2015-11-20T00:16:52.069Z,99.71
2015-11-20T00:17:04.413Z,99.42
2015-11-20T00:17:16.775Z,99.61
2015-11-20T00:17:29.197Z,99.99
2015-11-20T00:17:41.603Z,99.99
2015-11-20T00:17:53.931Z,99.99
2015-11-20T00:18:06.275Z,99.89
2015-11-20T00:18:18.464Z,99.99
2015-11-20T00:18:30.824Z,99.52
2015-11-20T00:18:43.183Z,99.89
2015-11-20T00:18:55.574Z,99.99
2015-11-20T00:19:07.918Z,99.99
2015-11-20T00:19:20.280Z,99.99
2015-11-20T00:19:32.655Z,99.99
2015-11-20T00:19:45.077Z,99.99
2015-11-20T00:19:57.499Z,99.99
2015-11-20T00:20:09.155Z,99.99
2015-11-20T00:20:21.517Z,99.99
2015-11-20T00:20:33.892Z,99.99
2015-11-20T00:20:46.252Z,99.99
2015-11-20T00:20:58.611Z,99.99
2015-11-20T00:21:10.970Z,99.99
2015-11-20T00:21:23.380Z,99.99
2015-11-20T00:21:35.739Z,99.99
2015-11-20T00:21:48.083Z,99.99
2015-11-20T00:22:00.427Z,99.99
2015-11-20T00:22:12.661Z,99.99
2015-11-20T00:22:25.008Z,99.99
2015-11-20T00:22:37.351Z,99.99
2015-11-20T00:22:49.758Z,99.99
2015-11-20T00:23:02.117Z,99.99
2015-11-20T00:23:14.461Z,99.99
2015-11-20T00:23:26.808Z,99.99
2015-11-20T00:23:39.167Z,99.99
2015-11-20T00:23:51.511Z,99.99
2015-11-20T00:24:03.854Z,99.99
2015-11-20T00:24:16.261Z,99.99
2015-11-20T00:24:28.606Z,99.99
2015-11-20T00:24:40.981Z,99.99
2015-11-20T00:24:53.340Z,99.99
2015-11-20T00:25:05.757Z,99.99
2015-11-20T00:25:18.132Z,99.99
2015-11-20T00:25:30.494Z,99.99
2015-11-20T00:25:42.869Z,99.99
2015-11-20T00:25:54.541Z,99.99
2015-11-20T00:26:06.916Z,99.99
2015-11-20T00:26:19.291Z,99.99
2015-11-20T00:26:31.700Z,99.99
2015-11-20T00:26:44.044Z,99.99
2015-11-20T00:26:56.435Z,99.99
2015-11-20T00:27:08.794Z,99.99
2015-11-20T00:27:21.138Z,99.99
2015-11-20T00:27:33.485Z,99.99
2015-11-20T00:27:45.828Z,99.99
2015-11-20T00:27:58.172Z,99.99
2015-11-20T00:28:10.516Z,99.99
2015-11-20T00:28:22.906Z,99.99
2015-11-20T00:28:35.268Z,99.99
2015-11-20T00:28:47.627Z,99.99
2015-11-20T00:28:59.987Z,99.99
2015-11-20T00:29:12.346Z,99.99
2015-11-20T00:29:24.721Z,99.99
2015-11-20T00:29:37.083Z,99.99
2015-11-20T00:29:49.458Z,99.99
2015-11-20T00:30:01.849Z,99.99
2015-11-20T00:30:14.224Z,99.99
2015-11-20T00:30:26.599Z,99.99
2015-11-20T00:30:38.274Z,99.99
2015-11-20T00:30:49.946Z,99.99
2015-11-20T00:31:02.305Z,99.99
2015-11-20T00:31:14.711Z,99.99
2015-11-20T00:31:27.071Z,99.99
2015-11-20T00:31:39.402Z,99.99
2015-11-20T00:31:51.761Z,99.99
2015-11-20T00:32:03.386Z,99.99
2015-11-20T00:32:15.746Z,99.99
2015-11-20T00:32:28.074Z,99.99
2015-11-20T00:32:40.435Z,99.99
2015-11-20T00:32:52.154Z,99.99
2015-11-20T00:33:04.529Z,99.99
2015-11-20T00:33:16.888Z,99.99
2015-11-20T00:33:29.232Z,99.99
2015-11-20T00:33:41.579Z,99.99
2015-11-20T00:33:53.907Z,99.99
2015-11-20T00:34:06.266Z,99.99
2015-11-20T00:34:18.672Z,99.99
2015-11-20T00:34:31.047Z,99.99
2015-11-20T00:34:43.410Z,99.99
2015-11-20T00:34:55.754Z,99.99
2015-11-20T00:35:08.144Z,99.99
2015-11-20T00:35:20.519Z,99.99
2015-11-20T00:35:32.894Z,99.99
2015-11-20T00:35:45.272Z,99.99
2015-11-20T00:35:57.663Z,99.99
2015-11-20T00:36:10.038Z,99.99
2015-11-20T00:36:21.710Z,99.99
2015-11-20T00:36:34.085Z,99.99
2015-11-20T00:36:46.446Z,99.99
2015-11-20T00:36:58.790Z,99.99
2015-11-20T00:37:11.196Z,99.99
2015-11-20T00:37:23.540Z,99.99
2015-11-20T00:37:35.884Z,99.99
2015-11-20T00:37:48.246Z,99.99
2015-11-20T00:38:00.605Z,99.99
2015-11-20T00:38:12.949Z,99.99
2015-11-20T00:38:25.308Z,99.99
2015-11-20T00:38:37.668Z,99.99
2015-11-20T00:38:50.014Z,99.99
2015-11-20T00:39:02.357Z,99.99
2015-11-20T00:39:14.748Z,99.99
2015-11-20T00:39:27.092Z,99.99
2015-11-20T00:39:39.482Z,99.99
2015-11-20T00:39:51.861Z,99.99
2015-11-20T00:40:04.221Z,99.99
2015-11-20T00:40:16.580Z,99.99
2015-11-20T00:40:28.955Z,99.99
2015-11-20T00:40:41.330Z,99.99
2015-11-20T00:40:52.989Z,99.99
2015-11-20T00:41:05.364Z,99.99
2015-11-20T00:41:17.755Z,99.99
2015-11-20T00:41:30.177Z,99.99
2015-11-20T00:41:42.583Z,99.99
2015-11-20T00:41:54.241Z,99.99
2015-11-20T00:42:06.616Z,99.99
2015-11-20T00:42:18.804Z,99.99
2015-11-20T00:42:31.148Z,99.99
2015-11-20T00:42:43.491Z,99.99
2015-11-20T00:42:55.837Z,99.99
2015-11-20T00:43:08.196Z,99.99
2015-11-20T00:43:20.540Z,99.99
2015-11-20T00:43:32.884Z,99.99
2015-11-20T00:43:45.228Z,99.99
2015-11-20T00:43:57.591Z,99.99
2015-11-20T00:44:09.935Z,99.99
2015-11-20T00:44:22.294Z,99.99
2015-11-20T00:44:34.654Z,99.99
2015-11-20T00:44:47.013Z,99.99
2015-11-20T00:44:59.375Z,99.99
2015-11-20T00:45:11.735Z,99.99
2015-11-20T00:45:24.157Z,99.99
2015-11-20T00:45:36.532Z,99.99
2015-11-20T00:45:48.891Z,99.99
2015-11-20T00:46:01.284Z,99.99
2015-11-20T00:46:13.659Z,99.99
2015-11-20T00:46:26.034Z,99.99
2015-11-20T00:46:38.502Z,99.99
2015-11-20T00:46:50.955Z,99.99
2015-11-20T00:47:03.332Z,99.99
2015-11-20T00:47:15.707Z,99.99
2015-11-20T00:47:28.098Z,99.99
2015-11-20T00:47:40.442Z,99.99
2015-11-20T00:47:52.786Z,99.99
2015-11-20T00:48:05.133Z,99.99
2015-11-20T00:48:17.477Z,99.99
2015-11-20T00:48:29.821Z,99.99
2015-11-20T00:48:41.524Z,99.99
2015-11-20T00:48:53.946Z,99.99
2015-11-20T00:49:06.308Z,99.99
2015-11-20T00:49:18.652Z,99.99
2015-11-20T00:49:31.011Z,99.99
2015-11-20T00:49:43.339Z,99.99
2015-11-20T00:49:55.746Z,99.99
2015-11-20T00:50:08.170Z,99.99
2015-11-20T00:50:20.529Z,99.99
2015-11-20T00:50:32.888Z,99.99
2015-11-20T00:50:45.248Z,99.99
2015-11-20T00:50:57.607Z,99.99
2015-11-20T00:51:09.968Z,99.99
2015-11-20T00:51:22.343Z,99.99
2015-11-20T00:51:34.718Z,99.99
2015-11-20T00:51:46.422Z,99.99
2015-11-20T00:51:58.797Z,99.99
2015-11-20T00:52:11.175Z,99.99
2015-11-20T00:52:23.565Z,99.99
2015-11-20T00:52:35.940Z,99.99
2015-11-20T00:52:48.331Z,99.99
2015-11-20T00:53:00.721Z,99.99
2015-11-20T00:53:13.132Z,99.99
2015-11-20T00:53:25.522Z,99.99
2015-11-20T00:53:37.866Z,99.89
2015-11-20T00:53:50.210Z,99.99
2015-11-20T00:54:02.569Z,99.99
2015-11-20T00:54:14.915Z,99.99
2015-11-20T00:54:27.290Z,99.99
2015-11-20T00:54:39.634Z,99.99
2015-11-20T00:54:51.993Z,99.99
2015-11-20T00:55:04.337Z,99.99
2015-11-20T00:55:16.699Z,99.99
2015-11-20T00:55:29.027Z,99.99
2015-11-20T00:55:41.371Z,99.99
2015-11-20T00:55:53.715Z,99.99
2015-11-20T00:56:06.074Z,99.99
2015-11-20T00:56:18.483Z,99.99
2015-11-20T00:56:30.874Z,99.99
2015-11-20T00:56:43.249Z,99.99
2015-11-20T00:56:55.468Z,99.99
2015-11-20T00:57:07.843Z,99.99
2015-11-20T00:57:20.221Z,99.99
2015-11-20T00:57:32.643Z,99.99
2015-11-20T00:57:45.065Z,99.99
2015-11-20T00:57:57.455Z,99.99
2015-11-20T00:58:09.830Z,99.99
2015-11-20T00:58:22.176Z,99.99
2015-11-20T00:58:34.520Z,99.99
2015-11-20T00:58:46.863Z,99.89
2015-11-20T00:58:58.488Z,99.99
2015-11-20T00:59:10.848Z,99.8
2015-11-20T00:59:23.194Z,99.8
2015-11-20T00:59:35.569Z,99.99
2015-11-20T00:59:47.959Z,99.99
2015-11-20T01:00:00.303Z,99.89
2015-11-20T01:00:12.665Z,99.8
2015-11-20T01:00:25.009Z,99.52
2015-11-20T01:00:37.337Z,99.89
2015-11-20T01:00:49.681Z,99.71
2015-11-20T01:01:02.040Z,99.99
2015-11-20T01:01:14.403Z,99.99
2015-11-20T01:01:26.762Z,99.99
2015-11-20T01:01:39.121Z,99.71
2015-11-20T01:01:51.481Z,99.8
2015-11-20T01:02:03.840Z,99.99
2015-11-20T01:02:16.203Z,99.89
2015-11-20T01:02:28.578Z,99.61
2015-11-20T01:02:40.953Z,99.8
2015-11-20T01:02:53.328Z,99.61
2015-11-20T01:03:05.765Z,99.52
2015-11-20T01:03:18.173Z,99.52
2015-11-20T01:03:30.548Z,99.42
2015-11-20T01:03:42.939Z,99.61
2015-11-20T01:03:55.283Z,99.33
2015-11-20T01:04:07.626Z,99.52
2015-11-20T01:04:19.973Z,99.42
2015-11-20T01:04:32.317Z,99.52
2015-11-20T01:04:44.661Z,99.61
2015-11-20T01:04:57.004Z,99.61
2015-11-20T01:05:09.348Z,99.61
2015-11-20T01:05:21.695Z,99.52
2015-11-20T01:05:34.039Z,99.52
2015-11-20T01:05:46.382Z,99.04
2015-11-20T01:05:58.726Z,99.04
2015-11-20T01:06:11.070Z,99.23
2015-11-20T01:06:23.417Z,99.14
2015-11-20T01:06:35.760Z,99.23
2015-11-20T01:06:48.120Z,99.04
2015-11-20T01:07:00.479Z,99.04
2015-11-20T01:07:12.885Z,99.14
2015-11-20T01:07:25.262Z,98.95
2015-11-20T01:07:37.606Z,99.04
2015-11-20T01:07:49.997Z,99.71
2015-11-20T01:08:02.356Z,99.52
2015-11-20T01:08:14.731Z,99.61
2015-11-20T01:08:27.125Z,99.61
2015-11-20T01:08:39.500Z,99.61
2015-11-20T01:08:51.875Z,99.61
2015-11-20T01:09:04.312Z,99.52
2015-11-20T01:09:16.765Z,99.23
2015-11-20T01:09:29.112Z,99.04
2015-11-20T01:09:41.456Z,99.8
2015-11-20T01:09:53.784Z,99.04
2015-11-20T01:10:06.128Z,99.14
2015-11-20T01:10:18.487Z,99.33
2015-11-20T01:10:30.865Z,99.61
2015-11-20T01:10:43.209Z,99.61
2015-11-20T01:10:55.553Z,99.42
2015-11-20T01:11:07.896Z,99.42
2015-11-20T01:11:20.240Z,99.52
2015-11-20T01:11:32.587Z,99.71
2015-11-20T01:11:44.931Z,99.42
2015-11-20T01:11:57.306Z,99.42
2015-11-20T01:12:09.665Z,99.23
2015-11-20T01:12:22.024Z,99.23
2015-11-20T01:12:34.387Z,99.52
2015-11-20T01:12:46.746Z,99.71
2015-11-20T01:12:58.371Z,99.8
2015-11-20T01:13:10.746Z,99.71
2015-11-20T01:13:23.184Z,99.33
2015-11-20T01:13:35.639Z,99.42
2015-11-20T01:13:48.014Z,99.71
2015-11-20T01:14:00.404Z,99.89
2015-11-20T01:14:12.779Z,99.71
2015-11-20T01:14:25.154Z,99.99
2015-11-20T01:14:37.548Z,99.99
2015-11-20T01:14:49.892Z,99.99
2015-11-20T01:15:02.220Z,99.71
2015-11-20T01:15:14.595Z,99.99
2015-11-20T01:15:27.017Z,99.8
2015-11-20T01:15:38.645Z,99.8
2015-11-20T01:15:50.989Z,99.99
2015-11-20T01:16:03.332Z,99.99
2015-11-20T01:16:15.676Z,99.99
2015-11-20T01:16:28.020Z,99.99
2015-11-20T01:16:40.413Z,99.99
2015-11-20T01:16:52.788Z,99.99
2015-11-20T01:17:05.132Z,99.99
2015-11-20T01:17:17.476Z,99.99
2015-11-20T01:17:29.820Z,99.99
2015-11-20T01:17:40.775Z,99.99
2015-11-20T01:17:53.150Z,99.99
2015-11-20T01:18:05.509Z,99.99
2015-11-20T01:18:17.853Z,99.99
2015-11-20T01:18:30.212Z,99.99
2015-11-20T01:18:42.590Z,99.99
2015-11-20T01:18:54.981Z,99.99
2015-11-20T01:19:07.340Z,99.99
2015-11-20T01:19:19.731Z,99.99
2015-11-20T01:19:32.137Z,99.99
2015-11-20T01:19:43.859Z,99.99
2015-11-20T01:19:56.203Z,99.99
2015-11-20T01:20:08.562Z,99.99
2015-11-20T01:20:20.906Z,99.99
2015-11-20T01:20:33.234Z,99.99
2015-11-20T01:20:45.595Z,99.99
2015-11-20T01:20:57.939Z,99.99
2015-11-20T01:21:10.314Z,99.99
2015-11-20T01:21:22.658Z,99.99
2015-11-20T01:21:34.986Z,99.99
2015-11-20T01:21:46.630Z,99.99
2015-11-20T01:21:58.973Z,99.99
2015-11-20T01:22:11.317Z,99.99
2015-11-20T01:22:23.676Z,99.99
2015-11-20T01:22:54.446Z,99.99
2015-11-20T01:23:07.149Z,99.99
2015-11-20T01:23:19.790Z,99.99
2015-11-20T01:23:32.165Z,99.99
2015-11-20T01:23:44.540Z,99.99
2015-11-20T01:23:56.917Z,99.99
2015-11-20T01:24:09.354Z,99.99
2015-11-20T01:24:21.792Z,99.99
2015-11-20T01:24:34.151Z,99.99
2015-11-20T01:24:46.526Z,99.99
2015-11-20T01:24:58.872Z,99.99
2015-11-20T01:25:11.216Z,99.99
2015-11-20T01:25:23.606Z,99.99
2015-11-20T01:25:35.950Z,99.99
2015-11-20T01:25:48.294Z,99.99
2015-11-20T01:26:00.642Z,99.99
2015-11-20T01:26:13.017Z,99.99
2015-11-20T01:26:25.376Z,99.99
2015-11-20T01:26:37.720Z,99.99
2015-11-20T01:26:50.079Z,99.99
2015-11-20T01:27:02.425Z,99.99
2015-11-20T01:27:14.769Z,99.99
2015-11-20T01:27:27.112Z,99.99
2015-11-20T01:27:39.487Z,99.99
2015-11-20T01:27:51.847Z,99.99
2015-11-20T01:28:04.225Z,99.99
2015-11-20T01:28:16.615Z,99.99
2015-11-20T01:28:28.990Z,99.99
2015-11-20T01:28:41.365Z,99.99
2015-11-20T01:28:53.740Z,99.99
2015-11-20T01:29:06.118Z,99.99
2015-11-20T01:29:18.493Z,99.99
2015-11-20T01:29:30.946Z,99.99
2015-11-20T01:29:43.306Z,99.99
2015-11-20T01:29:55.650Z,99.99
2015-11-20T01:30:07.981Z,99.99
2015-11-20T01:30:20.309Z,99.99
2015-11-20T01:30:32.653Z,99.99
2015-11-20T01:30:44.996Z,99.99
2015-11-20T01:30:57.340Z,99.99
2015-11-20T01:31:09.686Z,99.99
2015-11-20T01:31:22.076Z,99.99
2015-11-20T01:31:34.467Z,99.99
2015-11-20T01:31:46.811Z,99.99
2015-11-20T01:31:59.170Z,99.99
2015-11-20T01:32:11.517Z,99.99
2015-11-20T01:32:23.861Z,99.99
2015-11-20T01:32:36.220Z,99.99
2015-11-20T01:32:48.626Z,99.99
2015-11-20T01:33:01.048Z,99.99
2015-11-20T01:33:13.411Z,99.99
2015-11-20T01:33:25.770Z,99.99
2015-11-20T01:33:38.192Z,99.99
2015-11-20T01:33:50.661Z,99.99
2015-11-20T01:34:03.036Z,99.99
2015-11-20T01:34:15.414Z,99.99
2015-11-20T01:34:27.789Z,99.99
2015-11-20T01:34:40.164Z,99.99
2015-11-20T01:34:52.539Z,99.99
2015-11-20T01:35:04.929Z,99.99
2015-11-20T01:35:17.291Z,99.99
2015-11-20T01:35:29.634Z,99.99
2015-11-20T01:35:41.978Z,99.99
2015-11-20T01:35:54.337Z,99.99
2015-11-20T01:36:06.712Z,99.99
2015-11-20T01:36:18.403Z,99.99
2015-11-20T01:36:30.606Z,99.99
2015-11-20T01:36:42.950Z,99.99
2015-11-20T01:36:55.294Z,99.99
2015-11-20T01:37:07.653Z,99.99
2015-11-20T01:37:19.999Z,99.99
2015-11-20T01:37:32.389Z,99.99
2015-11-20T01:37:44.733Z,99.99
2015-11-20T01:37:57.092Z,99.99
2015-11-20T01:38:09.452Z,99.99
2015-11-20T01:38:21.830Z,99.8
2015-11-20T01:38:34.205Z,99.99
2015-11-20T01:38:46.564Z,99.89
2015-11-20T01:38:58.924Z,99.89
2015-11-20T01:39:11.302Z,99.99
2015-11-20T01:39:23.552Z,99.42
2015-11-20T01:39:35.973Z,99.71
2015-11-20T01:39:48.395Z,99.89
2015-11-20T01:40:00.770Z,99.99
2015-11-20T01:40:13.180Z,99.52
2015-11-20T01:40:25.523Z,99.8
2015-11-20T01:40:37.867Z,99.71
2015-11-20T01:40:50.211Z,99.61
2015-11-20T01:41:02.570Z,99.89
2015-11-20T01:41:14.917Z,99.99
2015-11-20T01:41:27.261Z,99.99
2015-11-20T01:41:39.620Z,99.99
2015-11-20T01:41:52.026Z,99.99
2015-11-20T01:42:04.370Z,99.99
2015-11-20T01:42:16.731Z,99.99
2015-11-20T01:42:29.075Z,99.99
2015-11-20T01:42:41.419Z,99.99
2015-11-20T01:42:53.841Z,99.99
2015-11-20T01:43:06.231Z,99.99
2015-11-20T01:43:18.594Z,99.99
2015-11-20T01:43:30.953Z,99.8
2015-11-20T01:43:43.297Z,99.8
2015-11-20T01:43:55.656Z,99.99
2015-11-20T01:44:08.016Z,99.89
2015-11-20T01:44:20.378Z,99.99
2015-11-20T01:44:32.784Z,99.89
2015-11-20T01:44:45.191Z,99.33
2015-11-20T01:44:57.566Z,99.33
2015-11-20T01:45:09.956Z,99.61
2015-11-20T01:45:22.349Z,99.33
2015-11-20T01:45:34.724Z,99.42
2015-11-20T01:45:47.099Z,99.52
2015-11-20T01:45:59.505Z,99.61
2015-11-20T01:46:11.927Z,99.04
2015-11-20T01:46:24.289Z,99.52
2015-11-20T01:46:36.633Z,99.33
2015-11-20T01:46:48.977Z,99.33
2015-11-20T01:47:01.383Z,98.66
2015-11-20T01:47:13.758Z,99.14
2015-11-20T01:47:26.105Z,98.57
2015-11-20T01:47:38.464Z,98.85
2015-11-20T01:47:50.808Z,98.95
2015-11-20T01:48:03.167Z,98.28
2015-11-20T01:48:15.574Z,98.76
2015-11-20T01:48:27.983Z,98.57
2015-11-20T01:48:40.342Z,98.95
2015-11-20T01:48:52.702Z,98.1
2015-11-20T01:49:05.061Z,98.1
2015-11-20T01:49:17.420Z,98.1
2015-11-20T01:49:29.783Z,98.1
2015-11-20T01:49:42.142Z,97.81
2015-11-20T01:49:54.580Z,97.72
2015-11-20T01:50:07.033Z,98.1
2015-11-20T01:50:19.408Z,98.19
2015-11-20T01:50:31.786Z,97.91
2015-11-20T01:50:44.145Z,98.19
2015-11-20T01:50:56.520Z,97.91
2015-11-20T01:51:08.270Z,98.1
2015-11-20T01:51:20.708Z,97.91
2015-11-20T01:51:33.053Z,98.1
2015-11-20T01:51:45.428Z,97.63
2015-11-20T01:51:57.850Z,97.53
2015-11-20T01:52:10.194Z,97.63
2015-11-20T01:52:22.538Z,97.63
2015-11-20T01:52:34.900Z,97.81
2015-11-20T01:52:47.244Z,97.63
2015-11-20T01:52:59.588Z,97.63
2015-11-20T01:53:11.994Z,97.53
2015-11-20T01:53:24.369Z,97.34
2015-11-20T01:53:36.730Z,97.06
2015-11-20T01:53:49.074Z,97.25
2015-11-20T01:54:01.433Z,97.44
2015-11-20T01:54:13.824Z,97.25
2015-11-20T01:54:26.183Z,97.53
2015-11-20T01:54:38.547Z,97.63
2015-11-20T01:54:50.906Z,97.81
2015-11-20T01:55:03.297Z,97.72
2015-11-20T01:55:15.672Z,97.63
2015-11-20T01:55:28.031Z,97.53
2015-11-20T01:55:40.439Z,97.34
2015-11-20T01:55:52.814Z,98.1
2015-11-20T01:56:05.189Z,98.1
2015-11-20T01:56:17.564Z,98.19
2015-11-20T01:56:29.939Z,98.1
2015-11-20T01:56:42.302Z,98.1
2015-11-20T01:56:54.692Z,97.81
2015-11-20T01:57:07.036Z,97.81
2015-11-20T01:57:19.224Z,98.28
2015-11-20T01:57:31.567Z,98.28
2015-11-20T01:57:43.914Z,98.19
2015-11-20T01:57:56.258Z,98.19
2015-11-20T01:58:08.711Z,98
2015-11-20T01:58:21.086Z,97.91
2015-11-20T01:58:33.445Z,98.1
2015-11-20T01:58:45.480Z,98.28
2015-11-20T01:58:57.667Z,97.81
2015-11-20T01:59:09.839Z,97.72
2015-11-20T01:59:22.245Z,97.72
2015-11-20T01:59:34.605Z,97.53
2015-11-20T01:59:47.060Z,97.53
2015-11-20T01:59:59.450Z,97.81
2015-11-20T02:00:11.810Z,97.53
2015-11-20T02:00:24.185Z,98
2015-11-20T02:00:36.544Z,98.19
2015-11-20T02:00:48.203Z,97.91
2015-11-20T02:01:00.578Z,99.04
2015-11-20T02:01:13.094Z,98.47
2015-11-20T02:01:25.438Z,98.95
2015-11-20T02:01:37.156Z,98.38
2015-11-20T02:01:49.519Z,98.57
2015-11-20T02:02:01.863Z,98.95
2015-11-20T02:02:14.238Z,98.85
2015-11-20T02:02:26.613Z,98.57
2015-11-20T02:02:38.956Z,98.66
2015-11-20T02:02:51.303Z,99.14
2015-11-20T02:03:03.678Z,98.85
2015-11-20T02:03:16.069Z,98.66
2015-11-20T02:03:28.412Z,99.14
2015-11-20T02:03:40.756Z,99.33
2015-11-20T02:03:53.103Z,99.23
2015-11-20T02:04:05.447Z,99.42
2015-11-20T02:04:17.822Z,99.14
2015-11-20T02:04:30.197Z,99.04
2015-11-20T02:04:42.556Z,99.52
2015-11-20T02:04:54.886Z,99.61
2015-11-20T02:05:07.214Z,99.61
2015-11-20T02:05:19.558Z,99.33
2015-11-20T02:05:31.917Z,99.14
2015-11-20T02:05:43.558Z,99.61
2015-11-20T02:05:55.936Z,99.71
2015-11-20T02:06:08.295Z,99.61
2015-11-20T02:06:20.670Z,99.42
2015-11-20T02:06:33.124Z,99.8
2015-11-20T02:06:45.514Z,99.99
2015-11-20T02:06:57.877Z,99.89
2015-11-20T02:07:10.252Z,99.8
2015-11-20T02:07:22.627Z,99.99
2015-11-20T02:07:35.002Z,99.89
2015-11-20T02:07:47.392Z,99.99
2015-11-20T02:07:59.739Z,99.71
2015-11-20T02:08:12.083Z,99.99
2015-11-20T02:08:24.489Z,99.89
2015-11-20T02:08:36.833Z,99.99
2015-11-20T02:08:49.192Z,99.99
2015-11-20T02:09:01.538Z,99.99
2015-11-20T02:09:13.944Z,99.99
2015-11-20T02:09:26.288Z,99.99
2015-11-20T02:09:38.678Z,99.99
2015-11-20T02:09:51.038Z,99.99
2015-11-20T02:10:03.385Z,99.99
2015-11-20T02:10:15.728Z,99.71
2015-11-20T02:10:27.369Z,99.99
2015-11-20T02:10:39.072Z,99.99
2015-11-20T02:10:51.494Z,99.99
2015-11-20T02:11:03.855Z,99.99
2015-11-20T02:11:16.199Z,99.99
2015-11-20T02:11:28.558Z,99.99
2015-11-20T02:11:40.933Z,99.99
2015-11-20T02:11:53.324Z,99.99
2015-11-20T02:12:05.625Z,99.99
2015-11-20T02:12:18.000Z,99.99
2015-11-20T02:12:30.391Z,99.99
2015-11-20T02:12:42.766Z,99.99
2015-11-20T02:12:55.094Z,99.99
2015-11-20T02:13:06.736Z,99.99
2015-11-20T02:13:19.080Z,99.99
2015-11-20T02:13:31.424Z,99.99
2015-11-20T02:13:43.768Z,99.99
2015-11-20T02:13:56.143Z,99.99
2015-11-20T02:14:08.489Z,99.99
2015-11-20T02:14:20.833Z,99.99
2015-11-20T02:14:33.177Z,99.99
2015-11-20T02:14:45.536Z,99.99
2015-11-20T02:14:57.880Z,99.99
2015-11-20T02:15:10.227Z,99.99
2015-11-20T02:15:22.586Z,99.99
2015-11-20T02:15:35.008Z,99.99
2015-11-20T02:15:47.367Z,99.99
2015-11-20T02:15:59.727Z,99.99
2015-11-20T02:16:12.088Z,99.99
2015-11-20T02:16:24.432Z,99.99
2015-11-20T02:16:36.791Z,99.99
2015-11-20T02:16:49.166Z,99.99
2015-11-20T02:17:01.541Z,99.99
2015-11-20T02:17:13.919Z,99.99
2015-11-20T02:17:26.294Z,99.99
2015-11-20T02:17:38.685Z,99.99
2015-11-20T02:17:51.060Z,99.99
2015-11-20T02:18:03.435Z,99.99
2015-11-20T02:18:15.781Z,99.99
2015-11-20T02:18:28.140Z,99.99
2015-11-20T02:18:40.531Z,99.99
2015-11-20T02:18:52.859Z,99.99
2015-11-20T02:19:04.484Z,99.99
2015-11-20T02:19:16.847Z,99.99
2015-11-20T02:19:29.191Z,99.99
2015-11-20T02:19:41.535Z,99.99
2015-11-20T02:19:53.956Z,99.99
2015-11-20T02:20:06.300Z,99.99
2015-11-20T02:20:18.646Z,99.99
2015-11-20T02:20:30.990Z,99.99
2015-11-20T02:20:43.349Z,99.99
2015-11-20T02:20:55.677Z,99.99
2015-11-20T02:21:08.037Z,99.99
2015-11-20T02:21:20.415Z,99.99
2015-11-20T02:21:32.852Z,99.99
2015-11-20T02:21:44.493Z,99.99
2015-11-20T02:21:56.852Z,99.99
2015-11-20T02:22:09.055Z,99.99
2015-11-20T02:22:21.448Z,99.99
2015-11-20T02:22:33.807Z,99.99
2015-11-20T02:22:46.338Z,99.99
2015-11-20T02:22:58.026Z,99.99
2015-11-20T02:23:10.432Z,99.99
2015-11-20T02:23:22.826Z,99.99
2015-11-20T02:23:35.248Z,99.99
2015-11-20T02:23:47.607Z,99.99
2015-11-20T02:23:59.935Z,99.99
2015-11-20T02:24:12.279Z,99.99
2015-11-20T02:24:24.626Z,99.99
2015-11-20T02:24:36.985Z,99.99
2015-11-20T02:24:49.376Z,99.99
2015-11-20T02:25:01.704Z,99.99
2015-11-20T02:25:14.063Z,99.99
2015-11-20T02:25:26.410Z,99.99
2015-11-20T02:25:38.769Z,99.99
2015-11-20T02:25:50.410Z,99.99
2015-11-20T02:26:02.754Z,99.99
2015-11-20T02:26:15.097Z,99.99
2015-11-20T02:26:27.459Z,99.99
2015-11-20T02:26:39.818Z,99.99
2015-11-20T02:26:52.021Z,99.99
2015-11-20T02:27:04.443Z,99.99
2015-11-20T02:27:16.818Z,99.99
2015-11-20T02:27:29.197Z,99.99
2015-11-20T02:27:41.572Z,99.99
2015-11-20T02:27:53.947Z,99.99
2015-11-20T02:28:06.322Z,99.99
2015-11-20T02:28:18.713Z,99.99
2015-11-20T02:28:31.122Z,99.99
2015-11-20T02:28:43.560Z,99.99
2015-11-20T02:28:55.950Z,99.99
2015-11-20T02:29:08.294Z,99.99
2015-11-20T02:29:20.638Z,99.99
2015-11-20T02:29:32.983Z,99.99
2015-11-20T02:29:45.327Z,99.99
2015-11-20T02:29:57.687Z,99.99
2015-11-20T02:30:10.046Z,99.99
2015-11-20T02:30:22.390Z,99.99
2015-11-20T02:30:34.736Z,99.99
2015-11-20T02:30:47.080Z,99.99
2015-11-20T02:30:59.486Z,99.99
2015-11-20T02:31:11.830Z,99.99
2015-11-20T02:31:24.174Z,99.99
2015-11-20T02:31:36.520Z,99.99
2015-11-20T02:31:48.879Z,99.99
2015-11-20T02:32:01.238Z,99.99
2015-11-20T02:32:13.645Z,99.99
2015-11-20T02:32:26.082Z,99.99
2015-11-20T02:32:38.430Z,99.99
2015-11-20T02:32:50.805Z,99.99
2015-11-20T02:33:03.211Z,99.99
2015-11-20T02:33:15.571Z,99.99
2015-11-20T02:33:27.946Z,99.99
2015-11-20T02:33:40.339Z,99.99
2015-11-20T02:33:52.699Z,99.99
2015-11-20T02:34:05.074Z,99.99
2015-11-20T02:34:17.527Z,99.99
2015-11-20T02:34:29.886Z,99.99
2015-11-20T02:34:42.232Z,99.99
2015-11-20T02:34:54.669Z,99.99
2015-11-20T02:35:07.029Z,99.99
2015-11-20T02:35:19.357Z,99.99
2015-11-20T02:35:31.732Z,99.99
2015-11-20T02:35:44.157Z,99.99
2015-11-20T02:35:56.516Z,99.99
2015-11-20T02:36:08.860Z,99.71
2015-11-20T02:36:21.204Z,99.71
2015-11-20T02:36:33.563Z,99.61
2015-11-20T02:36:45.910Z,99.99
2015-11-20T02:36:58.269Z,99.99
2015-11-20T02:37:10.628Z,99.52
2015-11-20T02:37:22.988Z,99.42
2015-11-20T02:37:35.347Z,99.61
2015-11-20T02:37:47.710Z,99.8
2015-11-20T02:38:00.085Z,99.23
2015-11-20T02:38:11.741Z,99.61
2015-11-20T02:38:24.100Z,98.95
2015-11-20T02:38:36.460Z,99.33
2015-11-20T02:38:48.837Z,99.23
2015-11-20T02:39:01.196Z,98.85
2015-11-20T02:39:13.555Z,98.85
2015-11-20T02:39:25.915Z,98.76